Time;durP1;ratioP1;P1;durP2;ratioP2;P2;SDS_P1;SDS_P2;PMS_P1;PMS_P2;Temp;Humidity;BMP_temperature;BMP_pressure;BME280_temperature;BME280_humidity;BME280_pressure;Samples;Min_cycle;Max_cycle;Signal;HPM_P1;HPM_P2
2023/05/15 00:02:21;;;;;;;0.20;0.20;;;10.10;99.90;;;;;;5035187;28;20064;-77
2023/05/15 00:04:46;;;;;;;0.17;0.17;;;10.10;99.90;;;;;;5036316;28;20021;-78
2023/05/15 00:07:12;;;;;;;0.20;0.20;;;10.00;99.90;;;;;;5020798;28;20506;-78
2023/05/15 00:09:37;;;;;;;0.20;0.20;;;10.00;99.90;;;;;;5016600;28;20018;-78
2023/05/15 00:12:03;;;;;;;0.20;0.20;;;10.00;99.90;;;;;;5016595;28;20021;-78
2023/05/15 00:14:29;;;;;;;0.20;0.20;;;9.90;99.90;;;;;;5016409;28;20101;-78
2023/05/15 00:16:54;;;;;;;0.20;0.20;;;9.90;99.90;;;;;;5018750;28;20044;-77
2023/05/15 00:19:20;;;;;;;0.20;0.20;;;9.80;99.90;;;;;;5022551;28;20469;-77
2023/05/15 00:21:45;;;;;;;0.20;0.20;;;9.70;99.90;;;;;;5028883;28;20033;-78
2023/05/15 00:24:11;;;;;;;0.10;0.10;;;9.70;99.90;;;;;;5016131;28;20041;-78
2023/05/15 00:26:36;;;;;;;0.20;0.20;;;9.60;99.90;;;;;;5015977;28;20037;-77
2023/05/15 00:29:02;;;;;;;0.20;0.20;;;9.60;99.90;;;;;;5016211;28;20041;-77
2023/05/15 00:31:27;;;;;;;0.28;0.28;;;9.60;99.90;;;;;;5014111;28;20063;-78
2023/05/15 00:33:53;;;;;;;0.10;0.10;;;9.50;99.90;;;;;;5032905;28;20025;-77
2023/05/15 00:36:20;;;;;;;0.20;0.20;;;9.50;99.90;;;;;;5033453;28;20040;-77
2023/05/15 00:38:46;;;;;;;0.28;0.28;;;9.50;99.90;;;;;;5035364;28;20071;-77
2023/05/15 00:41:13;;;;;;;0.20;0.20;;;9.50;99.90;;;;;;5034176;28;20037;-77
2023/05/15 00:43:40;;;;;;;0.20;0.20;;;9.40;99.90;;;;;;5032056;28;20026;-77
2023/05/15 00:46:06;;;;;;;0.20;0.20;;;9.40;99.90;;;;;;5035143;28;20091;-78
2023/05/15 00:48:32;;;;;;;0.10;0.10;;;9.30;99.90;;;;;;5021921;28;20045;-78
2023/05/15 00:50:58;;;;;;;0.20;0.20;;;9.30;99.90;;;;;;5015001;28;20033;-77
2023/05/15 00:53:25;;;;;;;0.20;0.20;;;9.20;99.90;;;;;;5017685;28;20026;-78
2023/05/15 00:55:53;;;;;;;0.10;0.10;;;9.20;99.90;;;;;;5014225;28;20049;-77
2023/05/15 00:58:20;;;;;;;0.10;0.10;;;9.20;99.90;;;;;;5016256;28;20029;-78
2023/05/15 01:00:48;;;;;;;0.20;0.20;;;9.10;99.90;;;;;;5021817;28;20029;-77
2023/05/15 01:03:14;;;;;;;0.20;0.20;;;9.10;99.90;;;;;;5035074;28;20026;-78
2023/05/15 01:05:39;;;;;;;0.20;0.20;;;9.00;99.90;;;;;;5033947;28;20021;-78
2023/05/15 01:08:22;;;;;;;0.20;0.20;;;9.00;99.90;;;;;;5035119;28;20029;-77
2023/05/15 01:10:50;;;;;;;0.30;0.30;;;9.00;99.90;;;;;;5032700;28;20026;-77
2023/05/15 01:13:18;;;;;;;0.20;0.20;;;8.90;99.90;;;;;;5033055;28;20057;-77
2023/05/15 01:15:44;;;;;;;0.20;0.20;;;8.90;99.90;;;;;;5030840;28;20029;-77
2023/05/15 01:18:09;;;;;;;0.20;0.20;;;8.80;99.90;;;;;;5033208;28;20083;-78
2023/05/15 01:20:46;;;;;;;0.20;0.20;;;8.80;99.90;;;;;;5024748;28;20529;-78
2023/05/15 01:23:36;;;;;;;0.20;0.20;;;8.80;99.90;;;;;;5021337;28;20030;-77
2023/05/15 01:26:20;;;;;;;0.20;0.20;;;8.80;99.90;;;;;;5034551;28;20108;-77
2023/05/15 01:28:55;;;;;;;0.10;0.10;;;8.80;99.90;;;;;;5022490;28;20391;-77
2023/05/15 01:31:23;;;;;;;0.20;0.20;;;8.80;99.90;;;;;;5027145;28;20033;-77
2023/05/15 01:33:54;;;;;;;0.20;0.20;;;8.80;99.90;;;;;;5033159;28;20045;-77
2023/05/15 01:36:31;;;;;;;0.20;0.20;;;8.80;99.90;;;;;;5018907;28;20022;-77
2023/05/15 01:39:01;;;;;;;0.20;0.20;;;8.70;99.90;;;;;;5014444;28;20511;-78
2023/05/15 01:41:44;;;;;;;0.20;0.20;;;8.70;99.90;;;;;;5016982;28;20041;-77
2023/05/15 01:44:15;;;;;;;0.20;0.20;;;8.70;99.90;;;;;;5014673;28;20030;-78
2023/05/15 01:46:48;;;;;;;0.20;0.20;;;8.60;99.90;;;;;;5023523;28;20283;-77
2023/05/15 01:49:17;;;;;;;0.20;0.20;;;8.60;99.90;;;;;;5033694;28;20391;-78
2023/05/15 01:51:45;;;;;;;0.15;0.15;;;8.50;99.90;;;;;;5030772;28;20022;-77
2023/05/15 01:54:14;;;;;;;0.20;0.20;;;8.50;99.90;;;;;;5032891;28;20052;-77
2023/05/15 01:56:43;;;;;;;0.20;0.20;;;8.50;99.90;;;;;;5032081;28;20109;-77
2023/05/15 01:59:12;;;;;;;0.20;0.20;;;8.50;99.90;;;;;;5032508;28;20028;-78
2023/05/15 02:01:38;;;;;;;0.30;0.30;;;8.50;99.90;;;;;;5018133;28;20100;-78
2023/05/15 02:04:05;;;;;;;0.20;0.20;;;8.50;99.90;;;;;;5014477;28;20416;-77
2023/05/15 02:06:32;;;;;;;0.15;0.15;;;8.50;99.90;;;;;;5014082;28;20033;-77
2023/05/15 02:08:59;;;;;;;0.15;0.15;;;8.50;99.90;;;;;;5014133;28;20476;-77
2023/05/15 02:11:24;;;;;;;0.15;0.15;;;8.40;99.90;;;;;;5012411;28;20025;-77
2023/05/15 02:13:51;;;;;;;0.20;0.20;;;8.30;99.90;;;;;;5014121;28;20030;-77
2023/05/15 02:16:17;;;;;;;0.20;0.20;;;8.30;99.90;;;;;;5013945;28;20067;-77
2023/05/15 02:18:42;;;;;;;0.10;0.10;;;8.30;99.90;;;;;;5012496;28;20129;-78
2023/05/15 02:21:08;;;;;;;0.20;0.20;;;8.30;99.90;;;;;;5013981;28;20034;-78
2023/05/15 02:23:34;;;;;;;0.22;0.22;;;8.40;99.90;;;;;;5014132;28;20080;-77
2023/05/15 02:26:03;;;;;;;0.20;0.20;;;8.30;99.90;;;;;;5013837;28;20084;-78
2023/05/15 02:28:52;;;;;;;0.20;0.20;;;8.20;99.90;;;;;;5013543;28;20053;-77
2023/05/15 02:31:30;;;;;;;0.17;0.17;;;8.20;99.90;;;;;;5013897;28;20526;-77
2023/05/15 02:34:22;;;;;;;0.20;0.20;;;8.10;99.90;;;;;;5013737;28;20109;-77
2023/05/15 02:36:50;;;;;;;0.10;0.10;;;8.10;99.90;;;;;;5012779;28;20038;-77
2023/05/15 02:39:17;;;;;;;0.20;0.20;;;8.00;99.90;;;;;;5013278;28;20080;-77
2023/05/15 02:41:44;;;;;;;0.10;0.10;;;8.00;99.90;;;;;;5013465;28;20041;-77
2023/05/15 02:44:12;;;;;;;0.20;0.20;;;8.00;99.90;;;;;;5013574;28;20018;-77
2023/05/15 02:46:38;;;;;;;0.20;0.20;;;7.90;99.90;;;;;;5013507;28;20045;-77
2023/05/15 02:49:04;;;;;;;0.20;0.20;;;7.90;99.90;;;;;;5013210;28;20018;-77
2023/05/15 02:51:30;;;;;;;0.20;0.20;;;7.90;99.90;;;;;;5013315;28;20458;-77
2023/05/15 02:53:58;;;;;;;0.20;0.20;;;7.80;99.90;;;;;;5013191;28;20026;-77
2023/05/15 02:56:24;;;;;;;0.30;0.30;;;7.80;99.90;;;;;;5011933;28;20026;-77
2023/05/15 02:58:50;;;;;;;0.20;0.20;;;7.70;99.90;;;;;;5013337;28;20498;-77
2023/05/15 03:01:15;;;;;;;0.20;0.20;;;7.70;99.90;;;;;;5013509;28;20030;-77
2023/05/15 03:03:41;;;;;;;0.20;0.20;;;7.60;99.90;;;;;;5011927;28;20026;-77
2023/05/15 03:06:06;;;;;;;0.15;0.15;;;7.60;99.90;;;;;;5013235;28;20040;-77
2023/05/15 03:08:32;;;;;;;0.10;0.10;;;7.50;99.90;;;;;;5015355;28;20129;-77
2023/05/15 03:10:58;;;;;;;0.20;0.20;;;7.60;99.90;;;;;;5015572;28;20084;-77
2023/05/15 03:13:23;;;;;;;0.20;0.20;;;7.50;99.90;;;;;;5015645;28;20391;-77
2023/05/15 03:15:49;;;;;;;0.20;0.20;;;7.50;99.90;;;;;;5016804;28;20022;-77
2023/05/15 03:18:14;;;;;;;0.20;0.20;;;7.50;99.90;;;;;;5016634;28;20104;-77
2023/05/15 03:20:40;;;;;;;0.20;0.20;;;7.40;99.90;;;;;;5015554;28;20022;-77
2023/05/15 03:23:06;;;;;;;0.20;0.20;;;7.40;99.90;;;;;;5016635;28;20105;-77
2023/05/15 03:25:31;;;;;;;0.20;0.20;;;7.40;99.90;;;;;;5016506;28;20124;-77
2023/05/15 03:27:57;;;;;;;0.20;0.20;;;7.40;99.90;;;;;;5016544;28;20026;-77
2023/05/15 03:30:22;;;;;;;0.20;0.20;;;7.40;99.90;;;;;;5016485;28;20072;-77
2023/05/15 03:32:48;;;;;;;0.20;0.20;;;7.40;99.90;;;;;;5015099;28;20460;-77
2023/05/15 03:35:13;;;;;;;0.20;0.20;;;7.40;99.90;;;;;;5016397;28;20034;-77
2023/05/15 03:37:39;;;;;;;0.20;0.20;;;7.40;99.90;;;;;;5016351;28;20080;-77
2023/05/15 03:40:06;;;;;;;0.20;0.20;;;7.40;99.90;;;;;;5016115;28;20041;-77
2023/05/15 03:42:31;;;;;;;0.20;0.20;;;7.40;99.90;;;;;;5016233;28;20026;-77
2023/05/15 03:44:57;;;;;;;0.20;0.20;;;7.40;99.90;;;;;;5016061;28;20030;-77
2023/05/15 03:47:22;;;;;;;0.20;0.20;;;7.40;99.90;;;;;;5014922;28;20029;-77
2023/05/15 03:49:48;;;;;;;0.20;0.20;;;7.40;99.90;;;;;;5014716;28;20018;-77
2023/05/15 03:52:13;;;;;;;0.20;0.20;;;7.40;99.90;;;;;;5014795;28;20018;-77
2023/05/15 03:54:39;;;;;;;0.22;0.22;;;7.50;99.90;;;;;;5016185;28;20030;-77
2023/05/15 03:57:05;;;;;;;0.10;0.10;;;7.50;99.90;;;;;;5014700;28;20029;-77
2023/05/15 03:59:31;;;;;;;0.20;0.20;;;7.50;99.90;;;;;;5015776;28;20392;-77
2023/05/15 04:01:56;;;;;;;0.20;0.20;;;7.50;99.90;;;;;;5015922;28;20034;-77
2023/05/15 04:04:22;;;;;;;0.15;0.15;;;7.50;99.90;;;;;;5015814;28;20033;-77
2023/05/15 04:06:48;;;;;;;0.10;0.10;;;7.60;99.90;;;;;;5015614;28;20034;-77
2023/05/15 04:09:14;;;;;;;0.20;0.20;;;7.60;99.90;;;;;;5015749;28;20472;-77
2023/05/15 04:11:39;;;;;;;0.20;0.20;;;7.70;99.90;;;;;;5015703;28;20033;-77
2023/05/15 04:14:05;;;;;;;0.17;0.17;;;7.70;99.90;;;;;;5015659;28;20033;-77
2023/05/15 04:16:30;;;;;;;0.10;0.10;;;7.80;99.90;;;;;;5014259;28;20033;-77
2023/05/15 04:18:56;;;;;;;0.20;0.20;;;7.80;99.90;;;;;;5014966;28;20495;-77
2023/05/15 04:21:21;;;;;;;0.17;0.17;;;7.80;99.90;;;;;;5015478;28;20114;-77
2023/05/15 04:23:47;;;;;;;0.22;0.22;;;7.90;99.90;;;;;;5015517;28;20097;-77
2023/05/15 04:26:12;;;;;;;0.20;0.20;;;7.90;99.90;;;;;;5015527;28;20502;-77
2023/05/15 04:28:38;;;;;;;0.20;0.20;;;7.90;99.90;;;;;;5015274;28;20506;-77
2023/05/15 04:31:03;;;;;;;0.15;0.15;;;8.00;99.90;;;;;;5015307;28;20442;-77
2023/05/15 04:33:29;;;;;;;0.17;0.17;;;8.10;99.90;;;;;;5014017;28;20025;-77
2023/05/15 04:35:55;;;;;;;0.20;0.20;;;8.20;99.90;;;;;;5015445;28;20484;-77
2023/05/15 04:38:20;;;;;;;0.20;0.20;;;8.20;99.90;;;;;;5015129;28;20026;-77
2023/05/15 04:40:46;;;;;;;0.20;0.20;;;8.30;99.90;;;;;;5015135;28;20033;-77
2023/05/15 04:43:11;;;;;;;0.20;0.20;;;8.40;99.90;;;;;;5015126;28;20030;-77
2023/05/15 04:45:37;;;;;;;0.20;0.20;;;8.50;99.90;;;;;;5015195;28;20103;-77
2023/05/15 04:48:03;;;;;;;0.20;0.20;;;8.60;99.90;;;;;;5015081;28;20018;-77
2023/05/15 04:50:28;;;;;;;0.20;0.20;;;8.70;99.90;;;;;;5015165;28;20116;-77
2023/05/15 04:52:54;;;;;;;0.20;0.20;;;8.80;99.90;;;;;;5014946;28;20494;-77
2023/05/15 04:55:19;;;;;;;0.20;0.20;;;9.00;99.90;;;;;;5015233;28;20029;-77
2023/05/15 04:57:46;;;;;;;0.13;0.13;;;9.10;99.90;;;;;;5015091;28;20076;-77
2023/05/15 05:00:13;;;;;;;0.20;0.20;;;9.20;99.90;;;;;;5015368;28;20077;-77
2023/05/15 05:02:39;;;;;;;0.20;0.20;;;9.40;99.90;;;;;;5015419;28;20033;-77
2023/05/15 05:05:06;;;;;;;0.10;0.10;;;9.50;99.90;;;;;;5015300;28;20018;-77
2023/05/15 05:07:34;;;;;;;0.20;0.20;;;9.60;99.90;;;;;;5015505;28;20458;-77
2023/05/15 05:10:00;;;;;;;0.20;0.20;;;9.80;99.90;;;;;;5015371;28;20471;-78
2023/05/15 05:12:26;;;;;;;0.20;0.20;;;9.90;99.90;;;;;;5016041;28;20084;-77
2023/05/15 05:14:51;;;;;;;0.20;0.20;;;10.00;99.90;;;;;;5022510;28;20433;-77
2023/05/15 05:17:17;;;;;;;0.20;0.20;;;10.10;99.90;;;;;;5022311;28;20506;-77
2023/05/15 05:19:43;;;;;;;0.20;0.20;;;10.30;99.90;;;;;;5028151;28;20112;-77
2023/05/15 05:22:09;;;;;;;0.20;0.20;;;10.40;99.90;;;;;;5034172;28;20025;-78
2023/05/15 05:24:36;;;;;;;0.20;0.20;;;10.50;99.90;;;;;;5035838;28;20112;-78
2023/05/15 05:27:02;;;;;;;0.20;0.20;;;10.60;99.90;;;;;;5022941;28;20029;-78
2023/05/15 05:29:29;;;;;;;0.10;0.10;;;10.80;99.90;;;;;;5036379;28;20017;-78
2023/05/15 05:31:54;;;;;;;0.28;0.28;;;10.90;99.90;;;;;;5032112;28;20383;-78
2023/05/15 05:34:21;;;;;;;0.20;0.20;;;11.10;99.90;;;;;;5036047;28;20021;-78
2023/05/15 05:36:46;;;;;;;0.20;0.20;;;11.20;99.90;;;;;;5034359;28;20022;-77
2023/05/15 05:39:12;;;;;;;0.10;0.10;;;11.40;99.90;;;;;;5023031;28;20114;-78
2023/05/15 05:41:37;;;;;;;0.20;0.20;;;11.50;99.90;;;;;;5030817;28;20498;-77
2023/05/15 05:44:03;;;;;;;0.10;0.10;;;11.70;99.90;;;;;;5020280;28;20080;-77
2023/05/15 05:46:28;;;;;;;0.20;0.20;;;11.80;99.90;;;;;;5014059;28;20040;-77
2023/05/15 05:48:54;;;;;;;0.10;0.10;;;12.00;99.90;;;;;;5029862;28;20026;-77
2023/05/15 05:51:19;;;;;;;0.15;0.15;;;12.10;99.90;;;;;;5034329;28;20021;-77
2023/05/15 05:53:45;;;;;;;0.13;0.13;;;12.30;99.90;;;;;;5033817;28;20054;-77
2023/05/15 05:56:11;;;;;;;0.20;0.20;;;12.50;99.90;;;;;;5032574;28;20022;-77
2023/05/15 05:58:36;;;;;;;0.10;0.10;;;12.60;99.90;;;;;;5018725;28;20029;-78
2023/05/15 06:01:02;;;;;;;0.20;0.20;;;12.70;99.90;;;;;;5033712;28;20036;-77
2023/05/15 06:03:27;;;;;;;0.10;0.10;;;12.80;99.90;;;;;;5034040;28;20479;-77
2023/05/15 06:05:53;;;;;;;0.13;0.13;;;12.90;99.90;;;;;;5034889;28;20036;-77
2023/05/15 06:08:19;;;;;;;0.10;0.10;;;12.90;99.90;;;;;;5036584;28;20029;-78
2023/05/15 06:10:45;;;;;;;0.20;0.20;;;12.90;99.90;;;;;;5037386;28;20021;-77
2023/05/15 06:13:13;;;;;;;0.20;0.20;;;12.80;99.90;;;;;;5034962;28;20108;-78
2023/05/15 06:15:38;;;;;;;0.15;0.15;;;12.90;99.90;;;;;;5036958;28;20021;-78
2023/05/15 06:18:04;;;;;;;0.20;0.20;;;13.00;99.90;;;;;;5036085;28;20036;-79
2023/05/15 06:20:30;;;;;;;0.10;0.10;;;13.00;99.90;;;;;;5038068;28;20461;-77
2023/05/15 06:22:56;;;;;;;0.17;0.17;;;13.10;99.90;;;;;;5035902;28;20060;-77
2023/05/15 06:25:21;;;;;;;0.20;0.20;;;13.10;99.90;;;;;;5035198;28;20032;-77
2023/05/15 06:27:47;;;;;;;0.20;0.20;;;13.10;99.90;;;;;;5036744;28;20077;-78
2023/05/15 06:30:13;;;;;;;0.20;0.20;;;13.20;99.90;;;;;;5036859;28;20049;-78
2023/05/15 06:32:40;;;;;;;0.20;0.20;;;13.20;99.90;;;;;;5038902;28;20029;-78
2023/05/15 06:35:06;;;;;;;0.20;0.20;;;13.30;99.90;;;;;;5037641;28;20095;-77
2023/05/15 06:37:32;;;;;;;0.20;0.20;;;13.30;99.90;;;;;;5037893;28;20030;-77
2023/05/15 06:39:57;;;;;;;0.10;0.10;;;13.40;99.90;;;;;;5038130;28;20045;-78
2023/05/15 06:42:23;;;;;;;0.20;0.20;;;13.50;99.90;;;;;;5038827;28;20075;-76
2023/05/15 06:44:49;;;;;;;0.20;0.20;;;13.70;99.90;;;;;;5037325;28;20017;-77
2023/05/15 06:47:15;;;;;;;0.20;0.20;;;14.20;99.90;;;;;;5036651;28;20018;-78
2023/05/15 06:49:40;;;;;;;0.13;0.13;;;14.60;99.90;;;;;;5028005;28;20030;-77
2023/05/15 06:52:06;;;;;;;0.15;0.15;;;14.90;99.90;;;;;;5020734;28;20029;-77
2023/05/15 06:54:31;;;;;;;0.20;0.20;;;15.00;99.90;;;;;;5020067;28;20065;-77
2023/05/15 06:56:57;;;;;;;0.10;0.10;;;15.00;99.90;;;;;;5029541;28;20034;-77
2023/05/15 06:59:22;;;;;;;0.20;0.20;;;14.90;99.90;;;;;;5036850;28;20033;-77
2023/05/15 07:01:48;;;;;;;0.10;0.10;;;14.90;99.90;;;;;;5027744;28;20048;-77
2023/05/15 07:04:13;;;;;;;0.15;0.15;;;14.90;99.90;;;;;;5032181;28;20034;-78
2023/05/15 07:06:39;;;;;;;0.20;0.20;;;14.90;99.90;;;;;;5019721;28;20050;-77
2023/05/15 07:09:05;;;;;;;0.20;0.20;;;15.10;99.90;;;;;;5020241;28;20022;-77
2023/05/15 07:11:32;;;;;;;0.20;0.20;;;15.30;99.90;;;;;;5021902;28;20387;-78
2023/05/15 07:13:58;;;;;;;0.20;0.20;;;15.60;99.90;;;;;;5040123;28;20049;-78
2023/05/15 07:16:23;;;;;;;0.20;0.20;;;15.80;99.90;;;;;;5036743;28;20368;-79
2023/05/15 07:18:49;;;;;;;0.20;0.20;;;16.10;99.90;;;;;;5032697;28;20385;-78
2023/05/15 07:21:14;;;;;;;0.20;0.20;;;16.30;99.90;;;;;;5018965;28;20022;-78
2023/05/15 07:23:40;;;;;;;0.20;0.20;;;16.60;99.90;;;;;;5023111;28;20442;-77
2023/05/15 07:26:06;;;;;;;0.20;0.20;;;16.80;99.90;;;;;;5033871;28;20438;-77
2023/05/15 07:28:31;;;;;;;0.10;0.10;;;17.10;99.90;;;;;;5021175;28;20057;-78
2023/05/15 07:30:57;;;;;;;0.10;0.10;;;17.30;99.90;;;;;;5022183;28;20030;-78
2023/05/15 07:33:22;;;;;;;0.10;0.10;;;17.60;99.90;;;;;;5020473;28;20033;-77
2023/05/15 07:35:49;;;;;;;0.10;0.10;;;17.90;99.90;;;;;;5020529;28;20444;-78
2023/05/15 07:38:15;;;;;;;0.10;0.10;;;18.10;99.90;;;;;;5022349;28;20026;-78
2023/05/15 07:40:40;;;;;;;0.20;0.20;;;18.30;99.90;;;;;;5022022;28;20090;-78
2023/05/15 07:43:06;;;;;;;0.20;0.20;;;18.40;99.90;;;;;;5036876;28;20526;-78
2023/05/15 07:45:31;;;;;;;0.15;0.15;;;18.70;99.90;;;;;;5041986;28;20112;-78
2023/05/15 07:47:57;;;;;;;0.10;0.10;;;18.80;99.90;;;;;;5041597;28;20100;-77
2023/05/15 07:50:23;;;;;;;0.20;0.20;;;18.90;99.90;;;;;;5040171;28;20116;-78
2023/05/15 07:52:48;;;;;;;0.10;0.10;;;19.00;99.90;;;;;;5038829;28;20026;-78
2023/05/15 07:55:14;;;;;;;0.20;0.20;;;19.10;99.90;;;;;;5040729;28;20502;-78
2023/05/15 07:57:39;;;;;;;0.10;0.10;;;19.20;99.90;;;;;;5041118;28;20434;-77
2023/05/15 08:00:11;;;;;;;0.03;0.03;;;19.30;99.90;;;;;;5039683;28;20394;-78
2023/05/15 08:02:37;;;;;;;0.10;0.10;;;19.40;99.90;;;;;;5040169;28;20025;-79
2023/05/15 08:05:03;;;;;;;0.10;0.10;;;19.60;99.90;;;;;;5041387;28;20036;-78
2023/05/15 08:07:31;;;;;;;0.10;0.10;;;19.80;99.90;;;;;;5039714;28;20079;-78
2023/05/15 08:09:56;;;;;;;0.10;0.10;;;20.00;99.90;;;;;;5041451;28;20100;-78
2023/05/15 08:12:22;;;;;;;0.10;0.10;;;20.30;99.90;;;;;;5041683;28;20521;-79
2023/05/15 08:14:49;;;;;;;0.10;0.10;;;20.50;99.90;;;;;;5040317;28;20049;-78
2023/05/15 08:17:15;;;;;;;0.10;0.10;;;20.60;99.90;;;;;;5040452;28;20498;-78
2023/05/15 08:19:40;;;;;;;0.10;0.10;;;20.90;99.90;;;;;;5038109;28;20034;-78
2023/05/15 08:22:06;;;;;;;0.10;0.10;;;21.00;99.90;;;;;;5038568;28;20029;-78
2023/05/15 08:24:31;;;;;;;0.10;0.10;;;20.90;99.90;;;;;;5037647;28;20029;-78
2023/05/15 08:26:57;;;;;;;0.10;0.10;;;21.00;99.90;;;;;;5036196;28;20112;-78
2023/05/15 08:29:22;;;;;;;0.10;0.10;;;21.00;99.90;;;;;;5037565;28;20433;-78
2023/05/15 08:31:48;;;;;;;0.10;0.10;;;20.90;99.90;;;;;;5036666;28;20139;-78
2023/05/15 08:34:13;;;;;;;0.10;0.10;;;21.10;99.90;;;;;;5036352;28;20075;-79
2023/05/15 08:36:39;;;;;;;0.10;0.10;;;21.30;99.90;;;;;;5037078;28;20491;-78
2023/05/15 08:39:06;;;;;;;0.10;0.10;;;21.30;99.90;;;;;;5036270;28;20040;-78
2023/05/15 08:41:36;;;;;;;0.10;0.10;;;21.20;99.90;;;;;;5035037;28;20632;-79
2023/05/15 08:44:03;;;;;;;0.10;0.10;;;21.20;99.90;;;;;;5036406;28;20112;-78
2023/05/15 08:46:31;;;;;;;0.10;0.10;;;21.10;99.90;;;;;;5035866;28;20107;-78
2023/05/15 08:48:58;;;;;;;0.10;0.10;;;21.00;99.90;;;;;;5035856;28;20067;-78
2023/05/15 08:51:23;;;;;;;0.10;0.10;;;20.90;99.90;;;;;;5035798;28;20025;-78
2023/05/15 08:53:49;;;;;;;0.10;0.10;;;20.70;99.90;;;;;;5036147;28;20018;-79
2023/05/15 08:56:15;;;;;;;0.10;0.10;;;20.50;99.90;;;;;;5034071;28;20030;-79
2023/05/15 08:58:42;;;;;;;0.10;0.10;;;20.50;99.90;;;;;;5034314;28;20025;-78
2023/05/15 09:01:09;;;;;;;0.10;0.10;;;20.60;99.90;;;;;;5035496;28;20426;-78
2023/05/15 09:03:35;;;;;;;0.10;0.10;;;20.80;99.90;;;;;;5034055;28;20021;-78
2023/05/15 09:06:01;;;;;;;0.10;0.10;;;21.10;99.90;;;;;;5034391;28;20084;-78
2023/05/15 09:08:30;;;;;;;0.10;0.10;;;21.40;99.90;;;;;;5035150;28;20048;-79
2023/05/15 09:10:57;;;;;;;0.10;0.10;;;21.70;99.90;;;;;;5035090;28;20040;-78
2023/05/15 09:13:23;;;;;;;0.10;0.10;;;21.60;99.90;;;;;;5034018;28;20495;-78
2023/05/15 09:15:49;;;;;;;0.10;0.10;;;21.80;99.90;;;;;;5035218;28;20057;-78
2023/05/15 09:18:15;;;;;;;0.10;0.10;;;21.90;99.90;;;;;;5034712;28;20029;-78
2023/05/15 09:20:41;;;;;;;0.03;0.03;;;22.00;99.90;;;;;;5033816;28;20037;-78
2023/05/15 09:23:25;;;;;;;0.10;0.10;;;22.00;99.90;;;;;;5034982;28;20025;-79
2023/05/15 09:25:55;;;;;;;0.10;0.10;;;22.60;99.90;;;;;;5033932;28;20029;-78
2023/05/15 09:28:47;;;;;;;0.10;0.10;;;22.50;99.90;;;;;;5033141;28;20018;-79
2023/05/15 09:31:13;;;;;;;0.10;0.10;;;22.60;99.90;;;;;;5029933;28;20040;-79
2023/05/15 09:33:41;;;;;;;0.10;0.10;;;22.70;99.90;;;;;;5034621;28;20017;-78
2023/05/15 09:36:07;;;;;;;0.00;0.00;;;22.50;99.90;;;;;;5034597;28;20077;-79
2023/05/15 09:38:38;;;;;;;0.00;0.00;;;22.70;99.90;;;;;;5034416;28;20487;-79
2023/05/15 09:41:05;;;;;;;0.10;0.10;;;22.90;99.90;;;;;;5033086;28;20025;-78
2023/05/15 09:43:36;;;;;;;0.08;0.08;;;22.90;99.90;;;;;;5034132;28;20025;-79
2023/05/15 09:46:02;;;;;;;0.00;0.00;;;22.90;99.90;;;;;;5032905;28;20025;-79
2023/05/15 09:48:29;;;;;;;0.10;0.10;;;23.00;99.90;;;;;;5034146;28;20391;-78
2023/05/15 09:50:55;;;;;;;0.10;0.10;;;23.20;99.90;;;;;;5034167;28;20072;-79
2023/05/15 09:53:21;;;;;;;0.00;0.00;;;23.50;99.90;;;;;;5032595;28;20092;-79
2023/05/15 09:55:47;;;;;;;0.00;0.00;;;23.70;99.90;;;;;;5032754;28;20126;-79
2023/05/15 09:58:15;;;;;;;0.00;0.00;;;24.00;99.90;;;;;;5033811;28;20036;-79
2023/05/15 10:00:42;;;;;;;0.00;0.00;;;23.80;99.90;;;;;;5033875;28;20032;-79
2023/05/15 10:03:09;;;;;;;0.10;0.10;;;23.80;99.90;;;;;;5033821;28;20024;-79
2023/05/15 10:05:35;;;;;;;0.00;0.00;;;23.90;99.90;;;;;;5033600;28;20083;-79
2023/05/15 10:08:02;;;;;;;0.10;0.10;;;24.00;99.90;;;;;;5032214;28;20025;-79
2023/05/15 10:10:28;;;;;;;0.03;0.03;;;24.40;99.90;;;;;;5033622;28;20144;-79
2023/05/15 10:13:00;;;;;;;0.00;0.00;;;24.90;99.90;;;;;;5033543;28;20043;-79
2023/05/15 10:15:27;;;;;;;0.00;0.00;;;24.90;99.90;;;;;;5033801;28;20097;-80
2023/05/15 10:17:53;;;;;;;0.00;0.00;;;25.20;99.90;;;;;;5032759;28;20033;-79
2023/05/15 10:20:22;;;;;;;0.00;0.00;;;25.80;99.90;;;;;;5033916;28;20029;-79
2023/05/15 10:22:52;;;;;;;0.00;0.00;;;25.70;99.90;;;;;;5032196;28;20036;-78
2023/05/15 10:25:31;;;;;;;0.00;0.00;;;25.50;99.90;;;;;;5033332;28;20025;-79
2023/05/15 10:27:58;;;;;;;0.00;0.00;;;25.60;99.90;;;;;;5033142;28;20422;-79
2023/05/15 10:30:25;;;;;;;0.00;0.00;;;25.80;99.90;;;;;;5033297;28;20100;-79
2023/05/15 10:32:51;;;;;;;0.00;0.00;;;26.30;99.90;;;;;;5033244;28;20030;-79
2023/05/15 10:35:17;;;;;;;0.00;0.00;;;26.20;99.90;;;;;;5033100;28;20447;-79
2023/05/15 10:37:45;;;;;;;0.00;0.00;;;25.90;99.90;;;;;;5033148;28;20061;-79
2023/05/15 10:40:13;;;;;;;0.00;0.00;;;25.70;99.90;;;;;;5033051;28;20021;-78
2023/05/15 10:42:41;;;;;;;0.00;0.00;;;25.60;99.90;;;;;;5033318;28;20021;-79
2023/05/15 10:45:08;;;;;;;0.00;0.00;;;25.30;99.90;;;;;;5033086;28;20100;-78
2023/05/15 10:47:35;;;;;;;0.00;0.00;;;25.00;99.90;;;;;;5033011;28;20479;-78
2023/05/15 10:50:01;;;;;;;0.00;0.00;;;24.90;99.90;;;;;;5031696;28;20072;-78
2023/05/15 10:52:26;;;;;;;0.00;0.00;;;25.00;99.90;;;;;;5033130;28;20438;-78
2023/05/15 10:54:52;;;;;;;0.00;0.00;;;25.20;99.90;;;;;;5031941;28;20556;-78
2023/05/15 10:57:20;;;;;;;0.00;0.00;;;25.40;99.90;;;;;;5033690;28;20028;-78
2023/05/15 10:59:46;;;;;;;0.00;0.00;;;25.40;99.90;;;;;;5032060;28;20095;-78
2023/05/15 11:02:28;;;;;;;0.00;0.00;;;25.70;99.90;;;;;;5033620;28;20531;-78
2023/05/15 11:04:55;;;;;;;0.00;0.00;;;25.20;99.90;;;;;;5033147;28;20117;-78
2023/05/15 11:07:23;;;;;;;0.10;0.10;;;24.10;99.90;;;;;;5033624;28;20501;-77
2023/05/15 11:09:49;;;;;;;0.10;0.10;;;23.00;99.90;;;;;;5033335;28;20064;-78
2023/05/15 11:12:14;;;;;;;0.10;0.10;;;22.10;99.90;;;;;;5027052;28;20025;-78
2023/05/15 11:14:42;;;;;;;0.10;0.10;;;21.40;99.90;;;;;;5029312;28;20048;-78
2023/05/15 11:17:13;;;;;;;0.10;0.10;;;21.00;99.90;;;;;;5027628;28;20032;-79
2023/05/15 11:19:48;;;;;;;0.10;0.10;;;21.50;99.90;;;;;;5024183;28;20175;-79
2023/05/15 11:22:13;;;;;;;0.10;0.10;;;22.20;99.90;;;;;;5032681;28;20033;-79
2023/05/15 11:25:01;;;;;;;0.10;0.10;;;22.90;99.90;;;;;;5013703;28;20128;-79
2023/05/15 11:27:38;;;;;;;0.10;0.10;;;23.10;99.90;;;;;;5032304;28;20140;-77
2023/05/15 11:30:08;;;;;;;0.10;0.10;;;23.30;99.90;;;;;;5037879;28;20044;-77
2023/05/15 11:32:46;;;;;;;0.10;0.10;;;23.00;99.90;;;;;;5039088;28;20021;-77
2023/05/15 11:35:25;;;;;;;0.10;0.10;;;22.20;99.90;;;;;;5036498;28;20025;-77
2023/05/15 11:37:53;;;;;;;0.00;0.00;;;22.00;99.90;;;;;;5037916;28;20029;-77
2023/05/15 11:40:29;;;;;;;0.10;0.10;;;22.30;99.90;;;;;;5037520;28;20045;-78
2023/05/15 11:43:02;;;;;;;0.10;0.10;;;22.40;99.90;;;;;;5022203;28;20033;-77
2023/05/15 11:45:33;;;;;;;0.00;0.00;;;22.40;99.90;;;;;;5016094;28;20030;-77
2023/05/15 11:48:01;;;;;;;0.10;0.10;;;22.90;99.90;;;;;;5016818;28;20068;-78
2023/05/15 11:50:28;;;;;;;0.10;0.10;;;22.90;99.90;;;;;;5018327;28;20026;-77
2023/05/15 11:52:54;;;;;;;0.10;0.10;;;22.70;99.90;;;;;;5018249;28;20463;-77
2023/05/15 11:55:20;;;;;;;0.00;0.00;;;22.90;99.90;;;;;;5017142;28;20105;-77
2023/05/15 11:57:46;;;;;;;0.10;0.10;;;22.80;99.90;;;;;;5017103;28;20022;-77
2023/05/15 12:00:13;;;;;;;0.10;0.10;;;23.20;99.90;;;;;;5017491;28;20024;-77
2023/05/15 12:02:38;;;;;;;0.00;0.00;;;23.50;99.90;;;;;;5017733;28;20444;-77
2023/05/15 12:05:07;;;;;;;0.10;0.10;;;23.80;99.90;;;;;;5032797;28;20060;-78
2023/05/15 12:07:37;;;;;;;0.05;0.05;;;23.90;99.90;;;;;;5017800;28;20499;-77
2023/05/15 12:10:03;;;;;;;0.03;0.03;;;24.10;99.90;;;;;;5017637;28;20079;-78
2023/05/15 12:12:30;;;;;;;0.10;0.10;;;23.90;99.90;;;;;;5021313;28;20029;-78
2023/05/15 12:14:59;;;;;;;0.03;0.03;;;23.90;99.90;;;;;;5020378;28;20029;-77
2023/05/15 12:17:26;;;;;;;0.10;0.10;;;23.20;99.90;;;;;;5026759;28;20025;-77
2023/05/15 12:19:54;;;;;;;0.10;0.10;;;22.50;99.90;;;;;;5020527;28;20057;-78
2023/05/15 12:22:20;;;;;;;0.10;0.10;;;22.00;99.90;;;;;;5039500;28;20031;-78
2023/05/15 12:24:46;;;;;;;0.10;0.10;;;21.90;99.90;;;;;;5041046;28;20027;-79
2023/05/15 12:27:12;;;;;;;0.10;0.10;;;21.20;99.90;;;;;;5036633;28;20112;-78
2023/05/15 12:29:39;;;;;;;0.10;0.10;;;20.80;99.90;;;;;;5039463;28;20132;-77
2023/05/15 12:32:05;;;;;;;0.10;0.10;;;20.40;99.90;;;;;;5040367;28;20024;-79
2023/05/15 12:34:31;;;;;;;0.10;0.10;;;20.50;99.90;;;;;;5040676;28;20018;-77
2023/05/15 12:36:58;;;;;;;0.10;0.10;;;20.70;99.90;;;;;;5040319;28;20103;-77
2023/05/15 12:39:25;;;;;;;0.10;0.10;;;20.90;99.90;;;;;;5039186;28;20033;-78
2023/05/15 12:41:54;;;;;;;0.00;0.00;;;21.30;99.90;;;;;;5039002;28;20458;-78
2023/05/15 12:44:20;;;;;;;0.10;0.10;;;22.70;99.90;;;;;;5039770;28;20033;-78
2023/05/15 12:46:46;;;;;;;0.10;0.10;;;23.20;99.90;;;;;;5034852;28;20025;-78
2023/05/15 12:49:12;;;;;;;0.10;0.10;;;23.10;99.90;;;;;;5039244;28;20017;-77
2023/05/15 12:51:44;;;;;;;0.10;0.10;;;23.30;99.90;;;;;;5038435;28;20084;-79